Time;durP1;ratioP1;P1;durP2;ratioP2;P2;SDS_P1;SDS_P2;PMS_P1;PMS_P2;Temp;Humidity;BMP_temperature;BMP_pressure;BME280_temperature;BME280_humidity;BME280_pressure;Samples;Min_cycle;Max_cycle;Signal;HPM_P1;HPM_P2
2021/05/27 00:02:08;;;;;;;18.70;3.83;;;10.30;99.90;;;;;;5092566;28;20492;-57
2021/05/27 00:04:34;;;;;;;16.40;4.85;;;10.30;99.90;;;;;;5092390;28;20043;-58
2021/05/27 00:07:00;;;;;;;13.50;5.65;;;10.30;99.90;;;;;;5092463;28;20072;-57
2021/05/27 00:09:26;;;;;;;13.27;4.55;;;10.30;99.90;;;;;;5092556;28;20595;-57
2021/05/27 00:11:52;;;;;;;11.43;4.75;;;10.30;99.90;;;;;;5092685;28;20116;-57
2021/05/27 00:14:18;;;;;;;15.02;4.28;;;10.30;99.90;;;;;;5092301;28;20036;-57
2021/05/27 00:16:44;;;;;;;12.77;4.72;;;10.30;99.90;;;;;;5092508;28;20051;-58
2021/05/27 00:19:10;;;;;;;13.23;4.80;;;10.30;99.90;;;;;;5092183;28;20036;-57
2021/05/27 00:21:35;;;;;;;10.52;4.15;;;10.30;99.90;;;;;;5092158;28;20488;-57
2021/05/27 00:24:01;;;;;;;13.48;4.72;;;10.30;99.90;;;;;;5092276;28;20044;-58
2021/05/27 00:26:27;;;;;;;16.98;5.32;;;10.20;99.90;;;;;;5092169;28;20040;-57
2021/05/27 00:28:53;;;;;;;12.77;4.82;;;10.20;99.90;;;;;;5092193;28;20051;-57
2021/05/27 00:31:19;;;;;;;13.77;3.83;;;10.20;99.90;;;;;;5092126;28;20040;-57
2021/05/27 00:33:45;;;;;;;16.08;4.68;;;10.10;99.90;;;;;;5092017;28;20044;-58
2021/05/27 00:36:10;;;;;;;13.07;4.93;;;10.20;99.90;;;;;;5091911;28;20130;-57
2021/05/27 00:38:36;;;;;;;14.23;5.10;;;10.20;99.90;;;;;;5091698;28;20504;-58
2021/05/27 00:41:03;;;;;;;10.20;4.57;;;10.20;99.90;;;;;;5092078;28;20140;-57
2021/05/27 00:43:28;;;;;;;15.75;5.60;;;10.20;99.90;;;;;;5092060;28;20387;-57
2021/05/27 00:45:54;;;;;;;13.63;5.07;;;10.20;99.90;;;;;;5091616;28;20036;-58
2021/05/27 00:51:05;;;;;;;14.90;4.97;;;10.20;99.90;;;;;;5092037;28;20172;-58
2021/05/27 00:53:31;;;;;;;11.13;4.93;;;10.30;99.90;;;;;;5091816;28;20036;-58
2021/05/27 00:55:57;;;;;;;12.95;5.28;;;10.30;99.90;;;;;;5091917;28;20458;-57
2021/05/27 00:58:23;;;;;;;19.90;5.40;;;10.30;99.90;;;;;;5091805;28;20117;-57
2021/05/27 01:00:50;;;;;;;16.92;6.05;;;10.20;99.90;;;;;;5091653;28;20046;-57
2021/05/27 01:03:17;;;;;;;12.93;6.45;;;10.30;99.90;;;;;;5091663;28;20086;-57
2021/05/27 01:05:43;;;;;;;22.65;7.60;;;10.20;99.90;;;;;;5091502;28;20359;-57
2021/05/27 01:08:09;;;;;;;19.52;5.85;;;10.30;99.90;;;;;;5091766;28;20066;-57
2021/05/27 01:10:35;;;;;;;14.35;6.07;;;10.30;99.90;;;;;;5090633;28;20040;-57
2021/05/27 01:13:02;;;;;;;13.90;5.47;;;10.30;99.90;;;;;;5091533;28;20484;-57
2021/05/27 01:15:39;;;;;;;16.20;5.78;;;10.30;99.90;;;;;;5092987;28;20531;-57
2021/05/27 01:18:14;;;;;;;18.05;5.43;;;10.30;99.90;;;;;;5095590;28;20062;-58
2021/05/27 01:20:52;;;;;;;14.73;5.28;;;10.30;99.90;;;;;;5095736;28;20039;-58
2021/05/27 01:23:21;;;;;;;16.85;5.05;;;10.30;99.90;;;;;;5095707;28;20474;-57
2021/05/27 01:25:55;;;;;;;15.93;5.70;;;10.40;99.90;;;;;;5095437;28;20036;-57
2021/05/27 01:28:22;;;;;;;11.90;4.95;;;10.40;99.90;;;;;;5095428;28;20044;-57
2021/05/27 01:30:49;;;;;;;15.73;5.32;;;10.30;99.90;;;;;;5095593;28;20048;-58
2021/05/27 01:33:18;;;;;;;16.83;5.53;;;10.40;99.90;;;;;;5095366;28;20040;-56
2021/05/27 01:35:45;;;;;;;20.77;5.90;;;10.40;99.90;;;;;;5095375;28;20044;-57
2021/05/27 01:38:15;;;;;;;12.82;5.30;;;10.30;99.90;;;;;;5095096;28;20084;-58
2021/05/27 01:40:42;;;;;;;18.13;4.70;;;10.30;99.90;;;;;;5095432;28;20040;-58
2021/05/27 01:43:07;;;;;;;18.73;5.53;;;10.40;99.90;;;;;;5095263;28;20036;-57
2021/05/27 01:45:34;;;;;;;15.48;5.63;;;10.30;99.90;;;;;;5095215;28;20040;-57
2021/05/27 01:48:00;;;;;;;17.30;6.72;;;10.30;99.90;;;;;;5095085;28;20086;-58
2021/05/27 01:50:26;;;;;;;14.10;5.15;;;10.30;99.90;;;;;;5095343;28;20048;-57
2021/05/27 01:52:57;;;;;;;16.73;6.00;;;10.40;99.90;;;;;;5094911;28;20119;-58
2021/05/27 01:55:23;;;;;;;19.67;6.22;;;10.40;99.90;;;;;;5094835;28;20066;-57
2021/05/27 01:57:49;;;;;;;18.65;5.97;;;10.40;99.90;;;;;;5093251;28;20075;-57
2021/05/27 02:00:15;;;;;;;23.67;6.47;;;10.40;99.90;;;;;;5094932;28;20040;-57
2021/05/27 02:02:42;;;;;;;18.13;6.43;;;10.40;99.90;;;;;;5094995;28;20060;-58
2021/05/27 02:05:08;;;;;;;15.70;6.22;;;10.40;99.90;;;;;;5093624;28;20462;-57
2021/05/27 02:07:34;;;;;;;13.82;5.05;;;10.40;99.90;;;;;;5094847;28;20070;-58
2021/05/27 02:10:00;;;;;;;16.00;5.75;;;10.40;99.90;;;;;;5094656;28;20469;-58
2021/05/27 02:12:25;;;;;;;14.88;5.32;;;10.40;99.90;;;;;;5094781;28;20040;-58
2021/05/27 02:14:51;;;;;;;17.05;5.00;;;10.40;99.90;;;;;;5093593;28;20463;-57
2021/05/27 02:17:17;;;;;;;16.98;5.35;;;10.40;99.90;;;;;;5094574;28;20040;-57
2021/05/27 02:19:42;;;;;;;12.90;4.55;;;10.40;99.90;;;;;;5094461;28;20394;-58
2021/05/27 02:22:08;;;;;;;13.43;4.90;;;10.40;99.90;;;;;;5094474;28;20127;-57
2021/05/27 02:24:34;;;;;;;14.10;3.90;;;10.40;99.90;;;;;;5094292;28;20051;-58
2021/05/27 02:27:00;;;;;;;14.52;4.90;;;10.40;99.90;;;;;;5093312;28;20048;-57
2021/05/27 02:29:25;;;;;;;13.52;4.18;;;10.40;99.90;;;;;;5094510;28;20460;-58
2021/05/27 02:31:52;;;;;;;13.25;3.17;;;10.40;99.90;;;;;;5094640;28;20052;-58
2021/05/27 02:34:17;;;;;;;8.48;3.33;;;10.40;99.90;;;;;;5094263;28;20054;-57
2021/05/27 02:36:43;;;;;;;11.02;3.22;;;10.40;99.90;;;;;;5094165;28;20422;-58
2021/05/27 02:39:09;;;;;;;11.38;2.97;;;10.40;99.90;;;;;;5093680;28;20086;-58
2021/05/27 02:41:35;;;;;;;9.85;3.13;;;10.40;99.90;;;;;;5094291;28;20048;-58
2021/05/27 02:44:00;;;;;;;14.95;3.35;;;10.50;99.90;;;;;;5093985;28;20063;-57
2021/05/27 02:46:27;;;;;;;9.00;3.10;;;10.40;99.90;;;;;;5093900;28;20046;-58
2021/05/27 02:48:53;;;;;;;9.45;3.10;;;10.40;99.90;;;;;;5093965;28;20067;-58
2021/05/27 02:51:19;;;;;;;13.20;3.67;;;10.40;99.90;;;;;;5093895;28;20036;-57
2021/05/27 02:53:44;;;;;;;7.53;2.83;;;10.30;99.90;;;;;;5093834;28;20039;-58
2021/05/27 02:56:10;;;;;;;14.57;3.70;;;10.30;99.90;;;;;;5093895;28;20379;-58
2021/05/27 02:58:36;;;;;;;12.18;3.75;;;10.30;99.90;;;;;;5093845;28;20055;-57
2021/05/27 03:01:01;;;;;;;12.35;3.92;;;10.30;99.90;;;;;;5093766;28;20055;-58
2021/05/27 03:03:27;;;;;;;10.13;3.38;;;10.30;99.90;;;;;;5093699;28;20508;-58
2021/05/27 03:05:53;;;;;;;11.98;3.83;;;10.30;99.90;;;;;;5093877;28;20050;-58
2021/05/27 03:08:20;;;;;;;13.90;3.38;;;10.30;99.90;;;;;;5093518;28;20055;-58
2021/05/27 03:10:46;;;;;;;10.15;3.08;;;10.40;99.90;;;;;;5093513;28;20119;-59
2021/05/27 03:13:12;;;;;;;6.03;3.30;;;10.30;99.90;;;;;;5093889;28;20502;-58
2021/05/27 03:15:38;;;;;;;8.00;3.28;;;10.40;99.90;;;;;;5093836;28;20442;-58
2021/05/27 03:18:06;;;;;;;10.48;3.58;;;10.40;99.90;;;;;;5093644;28;20474;-58
2021/05/27 03:20:32;;;;;;;10.77;3.28;;;10.30;99.90;;;;;;5093526;28;20101;-57
2021/05/27 03:22:58;;;;;;;11.48;4.30;;;10.30;99.90;;;;;;5093284;28;20390;-58
2021/05/27 03:25:23;;;;;;;8.95;3.75;;;10.30;99.90;;;;;;5093122;28;20089;-58
2021/05/27 03:27:49;;;;;;;9.80;3.67;;;10.30;99.90;;;;;;5091915;28;20048;-58
2021/05/27 03:30:16;;;;;;;6.68;3.00;;;10.30;99.90;;;;;;5093207;28;20072;-59
2021/05/27 03:32:42;;;;;;;13.05;3.97;;;10.40;99.90;;;;;;5093192;28;20055;-59
2021/05/27 03:35:09;;;;;;;8.45;3.45;;;10.30;99.90;;;;;;5093290;28;20036;-58
2021/05/27 03:37:35;;;;;;;10.63;3.50;;;10.30;99.90;;;;;;5092808;28;20401;-57
2021/05/27 03:40:14;;;;;;;7.38;3.30;;;10.30;99.90;;;;;;5092760;28;20139;-58
2021/05/27 03:42:49;;;;;;;14.05;3.60;;;10.20;99.90;;;;;;5093137;28;20048;-58
2021/05/27 03:45:20;;;;;;;7.95;3.78;;;10.20;99.90;;;;;;5092871;28;20055;-58
2021/05/27 03:47:46;;;;;;;7.50;3.63;;;10.20;99.90;;;;;;5092643;28;20121;-58
2021/05/27 03:50:14;;;;;;;9.73;4.47;;;10.20;99.90;;;;;;5093011;28;20063;-58
2021/05/27 03:52:40;;;;;;;13.87;4.40;;;10.30;99.90;;;;;;5092886;28;20115;-60
2021/05/27 03:55:09;;;;;;;8.13;4.60;;;10.30;99.90;;;;;;5092724;28;20043;-58
2021/05/27 03:57:35;;;;;;;11.63;4.13;;;10.30;99.90;;;;;;5092652;28;20051;-58
2021/05/27 04:02:47;;;;;;;10.45;4.60;;;10.30;99.90;;;;;;5092683;28;20048;-58
2021/05/27 04:07:58;;;;;;;8.20;3.65;;;10.20;99.90;;;;;;5092354;28;20464;-57
2021/05/27 04:10:25;;;;;;;9.13;4.22;;;10.20;99.90;;;;;;5092342;28;20040;-58
2021/05/27 04:12:51;;;;;;;9.20;3.42;;;10.20;99.90;;;;;;5092401;28;20044;-58
2021/05/27 04:15:26;;;;;;;8.30;3.90;;;10.20;99.90;;;;;;5092583;28;20040;-58
2021/05/27 04:18:01;;;;;;;11.77;4.75;;;10.20;99.90;;;;;;5092565;28;20055;-58
2021/05/27 04:20:33;;;;;;;8.30;4.13;;;10.20;99.90;;;;;;5092331;28;20048;-57
2021/05/27 04:23:00;;;;;;;10.13;5.03;;;10.20;99.90;;;;;;5092147;28;20478;-58
2021/05/27 04:25:27;;;;;;;10.40;4.28;;;10.20;99.90;;;;;;5092171;28;20044;-58
2021/05/27 04:27:54;;;;;;;13.20;4.35;;;10.20;99.90;;;;;;5092060;28;20101;-58
2021/05/27 04:30:21;;;;;;;11.43;4.70;;;10.20;99.90;;;;;;5092150;28;20044;-58
2021/05/27 04:32:55;;;;;;;9.80;4.35;;;10.20;99.90;;;;;;5092176;28;20493;-58
2021/05/27 04:35:32;;;;;;;12.25;4.53;;;10.20;99.90;;;;;;5092097;28;20040;-58
2021/05/27 04:38:03;;;;;;;12.23;4.55;;;10.20;99.90;;;;;;5091932;28;20051;-57
2021/05/27 04:40:30;;;;;;;14.57;5.28;;;10.20;99.90;;;;;;5091696;28;20056;-58
2021/05/27 04:42:56;;;;;;;13.30;4.82;;;10.20;99.90;;;;;;5092202;28;20116;-58
2021/05/27 04:45:22;;;;;;;11.77;4.85;;;10.10;99.90;;;;;;5092051;28;20474;-58
2021/05/27 04:47:49;;;;;;;13.00;5.00;;;10.10;99.90;;;;;;5091732;28;20486;-59
2021/05/27 04:50:15;;;;;;;13.35;4.80;;;10.10;99.90;;;;;;5091099;28;20047;-57
2021/05/27 04:52:41;;;;;;;11.73;4.82;;;10.10;99.90;;;;;;5092007;28;20044;-58
2021/05/27 04:55:10;;;;;;;11.07;4.20;;;10.10;99.90;;;;;;5091717;28;20575;-58
2021/05/27 04:57:35;;;;;;;10.82;5.35;;;10.10;99.90;;;;;;5092090;28;20083;-58
2021/05/27 05:00:03;;;;;;;10.65;5.03;;;10.00;99.90;;;;;;5090464;28;20435;-58
2021/05/27 05:02:29;;;;;;;11.10;5.50;;;10.00;99.90;;;;;;5091684;28;20432;-58
2021/05/27 05:04:54;;;;;;;11.85;5.60;;;10.00;99.90;;;;;;5091643;28;20040;-58
2021/05/27 05:07:20;;;;;;;10.77;5.13;;;10.10;99.90;;;;;;5091782;28;20040;-58
2021/05/27 05:09:46;;;;;;;13.25;6.80;;;10.10;99.90;;;;;;5091820;28;20097;-57
2021/05/27 05:12:12;;;;;;;12.90;5.68;;;10.10;99.90;;;;;;5092019;28;20047;-57
2021/05/27 05:14:37;;;;;;;12.75;5.65;;;10.10;99.90;;;;;;5091927;28;20500;-58
2021/05/27 05:17:03;;;;;;;17.40;6.22;;;10.00;99.90;;;;;;5091872;28;20449;-58
2021/05/27 05:19:29;;;;;;;11.45;5.40;;;10.00;99.90;;;;;;5091805;28;20044;-58
2021/05/27 05:21:57;;;;;;;10.32;5.68;;;10.10;99.90;;;;;;5091729;28;20106;-58
2021/05/27 05:24:24;;;;;;;;;;;10.10;99.90;;;;;;5091949;28;20051;-58
2021/05/27 05:26:50;;;;;;;15.57;6.22;;;10.10;99.90;;;;;;5091505;28;19916;-58
2021/05/27 05:29:16;;;;;;;13.95;6.15;;;10.00;99.90;;;;;;5091717;28;20048;-58
2021/05/27 05:31:42;;;;;;;13.43;5.55;;;10.00;99.90;;;;;;5091607;28;20044;-58
2021/05/27 05:34:08;;;;;;;16.15;5.85;;;10.00;99.90;;;;;;5091399;28;20040;-58
2021/05/27 05:36:33;;;;;;;16.02;5.85;;;10.00;99.90;;;;;;5091253;28;20058;-58
2021/05/27 05:38:59;;;;;;;11.10;6.00;;;10.10;99.90;;;;;;5091477;28;20083;-58
2021/05/27 05:41:25;;;;;;;17.85;6.50;;;10.10;99.90;;;;;;5091473;28;20044;-58
2021/05/27 05:43:51;;;;;;;21.58;7.00;;;10.10;99.90;;;;;;5091456;28;20044;-58
2021/05/27 05:46:16;;;;;;;15.90;7.50;;;10.10;99.90;;;;;;5091286;28;20473;-59
2021/05/27 05:48:42;;;;;;;22.67;6.15;;;10.10;99.90;;;;;;5091155;28;20097;-58
2021/05/27 05:51:08;;;;;;;14.48;7.00;;;10.10;99.90;;;;;;5091225;28;20083;-58
2021/05/27 05:53:36;;;;;;;13.25;6.65;;;10.10;99.90;;;;;;5091591;28;20047;-58
2021/05/27 05:56:03;;;;;;;19.03;6.57;;;10.10;99.90;;;;;;5091222;28;20493;-58
2021/05/27 05:58:29;;;;;;;14.38;6.90;;;10.10;99.90;;;;;;5091276;28;20036;-58
2021/05/27 06:00:55;;;;;;;15.77;5.95;;;10.10;99.90;;;;;;5091685;28;20044;-58
2021/05/27 06:03:21;;;;;;;18.52;7.28;;;10.10;99.90;;;;;;5095286;28;20032;-58
2021/05/27 06:05:46;;;;;;;13.50;6.55;;;10.10;99.90;;;;;;5094761;28;20040;-58
2021/05/27 06:08:12;;;;;;;16.13;6.05;;;10.10;99.90;;;;;;5094698;28;20050;-59
2021/05/27 06:10:38;;;;;;;13.10;5.68;;;10.10;99.90;;;;;;5094973;28;20044;-58
2021/05/27 06:13:05;;;;;;;10.65;5.57;;;10.10;99.90;;;;;;5094793;28;20043;-58
2021/05/27 06:15:31;;;;;;;11.07;4.65;;;10.20;99.90;;;;;;5094636;28;20104;-59
2021/05/27 06:17:58;;;;;;;13.98;5.57;;;10.20;99.90;;;;;;5094365;28;20089;-58
2021/05/27 06:20:25;;;;;;;8.00;4.82;;;10.20;99.90;;;;;;5094645;28;20047;-58
2021/05/27 06:22:51;;;;;;;11.70;5.25;;;10.20;99.90;;;;;;5094485;28;20047;-58
2021/05/27 06:25:18;;;;;;;13.20;5.03;;;10.20;99.90;;;;;;5094244;28;20502;-58
2021/05/27 06:27:43;;;;;;;6.95;4.13;;;10.30;99.90;;;;;;5094355;28;20126;-58
2021/05/27 06:30:10;;;;;;;5.70;3.08;;;10.30;99.90;;;;;;5094430;28;20157;-58
2021/05/27 06:32:37;;;;;;;5.45;3.13;;;10.30;99.90;;;;;;5093078;28;20533;-58
2021/05/27 06:35:06;;;;;;;8.85;3.40;;;10.30;99.90;;;;;;5094324;28;20048;-58
2021/05/27 06:37:36;;;;;;;5.00;3.20;;;10.30;99.90;;;;;;5094175;28;20040;-58
2021/05/27 06:40:04;;;;;;;5.63;2.72;;;10.40;99.90;;;;;;5094389;28;20091;-58
2021/05/27 06:42:30;;;;;;;6.30;3.73;;;10.30;99.90;;;;;;5094213;28;20056;-59
2021/05/27 06:44:56;;;;;;;5.40;2.65;;;10.40;99.90;;;;;;5094177;28;20044;-58
2021/05/27 06:47:22;;;;;;;5.30;2.70;;;10.40;99.90;;;;;;5094315;28;20112;-58
2021/05/27 06:49:47;;;;;;;4.43;2.22;;;10.40;99.90;;;;;;5094213;28;20082;-58
2021/05/27 06:52:13;;;;;;;5.07;2.88;;;10.50;99.90;;;;;;5094013;28;20486;-58
2021/05/27 06:54:39;;;;;;;10.18;3.53;;;10.50;99.90;;;;;;5101772;28;20040;-58
2021/05/27 06:57:05;;;;;;;7.35;3.20;;;10.50;99.90;;;;;;5114331;28;20138;-58
2021/05/27 06:59:30;;;;;;;4.38;2.58;;;10.50;99.90;;;;;;5114088;28;20446;-59
2021/05/27 07:01:56;;;;;;;4.47;2.63;;;10.60;99.90;;;;;;5114297;28;20043;-58
2021/05/27 07:04:22;;;;;;;5.90;2.75;;;10.70;99.90;;;;;;5114220;28;20051;-58
2021/05/27 07:06:47;;;;;;;3.03;2.28;;;10.80;99.90;;;;;;5113746;28;20473;-58
2021/05/27 07:09:14;;;;;;;5.75;2.60;;;10.80;99.90;;;;;;5113962;28;20130;-58
2021/05/27 07:11:40;;;;;;;3.22;2.00;;;10.90;99.90;;;;;;5113969;28;20370;-58
2021/05/27 07:14:06;;;;;;;5.28;2.30;;;10.90;99.90;;;;;;5113091;28;20036;-57
2021/05/27 07:16:33;;;;;;;8.23;2.63;;;11.00;99.90;;;;;;5113914;28;20063;-59
2021/05/27 07:19:00;;;;;;;2.85;2.00;;;11.00;99.90;;;;;;5113734;28;20496;-58
2021/05/27 07:21:25;;;;;;;4.10;2.03;;;11.00;99.90;;;;;;5114013;28;20040;-58
2021/05/27 07:23:51;;;;;;;4.25;1.98;;;11.00;99.90;;;;;;5113712;28;20474;-58
2021/05/27 07:26:17;;;;;;;2.95;1.70;;;11.10;99.90;;;;;;5113602;28;20492;-59
2021/05/27 07:28:44;;;;;;;5.07;2.00;;;11.20;99.90;;;;;;5113460;28;20442;-58
2021/05/27 07:31:10;;;;;;;6.38;1.88;;;11.20;99.90;;;;;;5113693;28;20093;-58
2021/05/27 07:33:36;;;;;;;8.05;2.00;;;11.30;99.90;;;;;;5113819;28;20047;-59
2021/05/27 07:36:04;;;;;;;6.75;2.00;;;11.40;99.90;;;;;;5113926;28;20465;-58
2021/05/27 07:38:30;;;;;;;6.03;1.77;;;11.60;99.90;;;;;;5113525;28;20047;-57
2021/05/27 07:40:56;;;;;;;10.30;2.63;;;11.60;99.90;;;;;;5113569;28;20051;-58
2021/05/27 07:43:22;;;;;;;8.77;2.42;;;11.80;99.90;;;;;;5113169;28;20432;-58
2021/05/27 07:45:48;;;;;;;7.35;2.22;;;11.90;99.90;;;;;;5113208;28;20043;-58
2021/05/27 07:48:13;;;;;;;15.95;2.40;;;12.10;99.90;;;;;;5107046;28;20138;-58
2021/05/27 07:50:39;;;;;;;9.77;3.40;;;12.10;99.90;;;;;;5102845;28;20397;-58
2021/05/27 07:53:07;;;;;;;13.07;2.70;;;12.20;99.90;;;;;;5103442;28;20042;-58
2021/05/27 07:55:33;;;;;;;11.48;3.55;;;12.20;99.90;;;;;;5101613;28;20480;-58
2021/05/27 07:57:59;;;;;;;7.75;2.40;;;12.20;99.90;;;;;;5102589;28;20096;-59
2021/05/27 08:00:25;;;;;;;14.27;2.83;;;12.20;99.90;;;;;;5103174;28;20408;-58
2021/05/27 08:02:51;;;;;;;14.25;3.20;;;12.30;99.90;;;;;;5101295;28;20032;-58
2021/05/27 08:05:19;;;;;;;10.95;3.13;;;12.30;99.90;;;;;;5103024;28;20036;-58
2021/05/27 08:07:46;;;;;;;13.60;3.67;;;12.40;99.90;;;;;;5103024;28;20035;-58
2021/05/27 08:10:12;;;;;;;9.00;2.65;;;12.40;99.90;;;;;;5107141;28;20044;-57
2021/05/27 08:12:38;;;;;;;17.13;3.20;;;12.40;99.90;;;;;;5111080;28;20040;-58
2021/05/27 08:15:05;;;;;;;14.73;3.20;;;12.50;99.90;;;;;;5111174;28;20039;-58
2021/05/27 08:17:31;;;;;;;21.45;3.50;;;12.40;99.90;;;;;;5112407;28;20044;-58
2021/05/27 08:19:57;;;;;;;18.27;4.25;;;12.50;99.90;;;;;;5111440;28;20048;-58
2021/05/27 08:22:23;;;;;;;15.10;4.22;;;12.50;99.90;;;;;;5112497;28;20039;-57
2021/05/27 08:24:49;;;;;;;16.58;3.00;;;12.60;99.90;;;;;;5111695;28;20465;-58
2021/05/27 08:27:15;;;;;;;15.82;3.92;;;12.60;99.90;;;;;;5112305;28;20039;-59
2021/05/27 08:29:41;;;;;;;16.98;3.40;;;12.50;99.90;;;;;;5112712;28;20047;-58
2021/05/27 08:32:07;;;;;;;16.38;3.65;;;12.50;99.90;;;;;;5112350;28;20075;-58
2021/05/27 08:34:33;;;;;;;17.98;3.88;;;12.50;99.90;;;;;;5112556;28;20130;-58
2021/05/27 08:37:00;;;;;;;18.63;5.05;;;12.40;99.90;;;;;;5112476;28;20097;-58
2021/05/27 08:39:26;;;;;;;15.07;3.70;;;12.30;99.90;;;;;;5112302;28;20104;-57
2021/05/27 08:41:52;;;;;;;21.42;5.32;;;12.40;99.90;;;;;;5112608;28;20050;-58
2021/05/27 08:44:18;;;;;;;17.67;4.28;;;12.40;99.90;;;;;;5112361;28;20065;-58
2021/05/27 08:46:46;;;;;;;15.73;3.92;;;12.40;99.90;;;;;;5112572;28;20051;-58
2021/05/27 08:49:12;;;;;;;18.03;5.13;;;12.30;99.90;;;;;;5112524;28;20048;-58
2021/05/27 08:51:38;;;;;;;19.08;5.05;;;12.30;99.90;;;;;;5112867;28;20108;-58
2021/05/27 08:54:05;;;;;;;15.38;4.30;;;12.20;99.90;;;;;;5112884;28;20475;-58
2021/05/27 08:56:33;;;;;;;14.27;4.18;;;12.20;99.90;;;;;;5112729;28;20043;-57
2021/05/27 08:58:59;;;;;;;20.10;5.20;;;12.20;99.90;;;;;;5112517;28;20048;-58
2021/05/27 09:01:25;;;;;;;15.80;3.88;;;12.20;99.90;;;;;;5112448;28;20050;-59
2021/05/27 09:03:54;;;;;;;16.58;3.53;;;12.30;99.90;;;;;;5112148;28;20078;-58
2021/05/27 09:06:20;;;;;;;;;;;12.30;99.90;;;;;;5112733;28;20462;-57
2021/05/27 09:08:46;;;;;;;21.30;4.30;;;12.30;99.90;;;;;;5112212;28;19919;-58
2021/05/27 09:11:20;;;;;;;14.68;3.22;;;12.30;99.90;;;;;;5112476;28;20126;-58
2021/05/27 09:13:58;;;;;;;21.20;5.40;;;12.40;99.90;;;;;;5112130;28;20040;-58
2021/05/27 09:16:26;;;;;;;25.52;4.25;;;12.40;99.90;;;;;;5112177;28;20047;-57
2021/05/27 09:18:52;;;;;;;21.52;4.90;;;12.40;99.90;;;;;;5111937;28;20096;-57
2021/05/27 09:21:36;;;;;;;16.23;3.08;;;12.50;99.90;;;;;;5111825;28;20044;-57
2021/05/27 09:24:03;;;;;;;16.88;3.20;;;12.40;99.90;;;;;;5111948;28;20482;-58
2021/05/27 09:26:31;;;;;;;10.30;2.95;;;12.60;99.90;;;;;;5112139;28;20067;-58
2021/05/27 09:29:11;;;;;;;10.35;3.35;;;12.60;99.90;;;;;;5111957;28;20448;-58
2021/05/27 09:31:56;;;;;;;16.77;3.80;;;12.70;99.90;;;;;;5111653;28;20115;-57
2021/05/27 09:34:44;;;;;;;18.42;3.22;;;12.90;99.90;;;;;;5110246;28;20058;-58
2021/05/27 09:37:26;;;;;;;13.20;3.35;;;12.90;99.90;;;;;;5114497;28;20051;-58
2021/05/27 09:39:53;;;;;;;11.35;3.20;;;12.90;99.90;;;;;;5115479;28;20062;-57
2021/05/27 09:42:19;;;;;;;11.30;3.00;;;13.00;99.90;;;;;;5115868;28;20097;-58
2021/05/27 09:44:45;;;;;;;11.43;2.97;;;13.00;99.90;;;;;;5115703;28;20043;-57
2021/05/27 09:47:11;;;;;;;15.20;3.35;;;12.90;99.90;;;;;;5115784;28;20043;-57
2021/05/27 09:49:58;;;;;;;12.57;3.63;;;12.70;99.90;;;;;;5115552;28;20500;-57
2021/05/27 09:52:26;;;;;;;14.13;3.10;;;12.70;99.90;;;;;;5115292;28;20040;-57
2021/05/27 09:54:55;;;;;;;10.02;2.67;;;12.80;99.90;;;;;;5115605;28;20048;-57
2021/05/27 09:57:26;;;;;;;11.70;2.95;;;12.90;99.90;;;;;;5115537;28;20043;-58
2021/05/27 09:59:54;;;;;;;12.70;2.85;;;12.90;99.90;;;;;;5115716;28;20048;-57
2021/05/27 10:02:20;;;;;;;11.90;3.38;;;12.90;99.90;;;;;;5115431;28;20043;-57
2021/05/27 10:05:06;;;;;;;11.60;3.00;;;12.80;99.90;;;;;;5115468;28;20040;-57
2021/05/27 10:07:46;;;;;;;13.27;2.90;;;12.80;99.90;;;;;;5115259;28;20047;-57
2021/05/27 10:10:20;;;;;;;13.43;3.47;;;12.70;99.90;;;;;;5115220;28;20108;-57
2021/05/27 10:12:51;;;;;;;13.05;4.15;;;12.60;99.90;;;;;;5115000;28;20051;-58
2021/05/27 10:15:20;;;;;;;16.10;3.28;;;12.60;99.90;;;;;;5115162;28;20044;-57
2021/05/27 10:17:46;;;;;;;13.18;2.67;;;12.70;99.90;;;;;;5115301;28;20150;-58
2021/05/27 10:20:14;;;;;;;11.55;2.63;;;12.90;99.90;;;;;;5115037;28;20721;-57
2021/05/27 10:22:43;;;;;;;12.65;3.83;;;13.00;99.90;;;;;;5114989;28;20126;-58
2021/05/27 10:25:13;;;;;;;7.50;2.10;;;13.20;99.90;;;;;;5114939;28;20078;-58
2021/05/27 10:27:42;;;;;;;12.27;2.75;;;13.10;99.90;;;;;;5114929;28;20042;-57
2021/05/27 10:30:09;;;;;;;8.18;2.20;;;13.10;99.90;;;;;;5114735;28;20039;-58
2021/05/27 10:32:49;;;;;;;12.13;2.63;;;12.90;99.90;;;;;;5114638;28;20032;-58
2021/05/27 10:35:15;;;;;;;;;;;13.00;99.90;;;;;;5115382;28;20046;-58
2021/05/27 10:37:42;;;;;;;10.52;2.65;;;13.20;99.90;;;;;;5114769;28;19923;-58
2021/05/27 10:40:11;;;;;;;9.43;2.55;;;13.30;99.90;;;;;;5114695;28;20140;-57
2021/05/27 10:42:55;;;;;;;14.00;3.00;;;13.10;99.90;;;;;;5114565;28;20069;-58
2021/05/27 10:45:22;;;;;;;12.75;3.28;;;13.30;99.90;;;;;;5114457;28;20541;-57
2021/05/27 10:48:12;;;;;;;12.82;3.13;;;13.40;99.90;;;;;;5113284;28;20134;-58
2021/05/27 10:53:36;;;;;;;15.00;3.90;;;13.30;99.90;;;;;;5114470;28;20119;-58
2021/05/27 10:56:10;;;;;;;15.73;2.85;;;13.40;99.90;;;;;;5114040;28;20543;-57
2021/05/27 11:01:42;;;;;;;22.45;3.92;;;13.50;99.90;;;;;;5113959;28;20067;-58
2021/05/27 11:04:32;;;;;;;10.15;3.00;;;13.30;99.90;;;;;;5051037;28;20048;-59
2021/05/27 11:07:18;;;;;;;12.82;2.80;;;13.00;99.90;;;;;;5051168;28;20410;-58
2021/05/27 11:09:46;;;;;;;16.08;3.35;;;13.00;99.90;;;;;;5051108;28;20443;-58
2021/05/27 11:12:23;;;;;;;13.65;3.70;;;13.10;99.90;;;;;;5051054;28;20506;-58
2021/05/27 11:15:01;;;;;;;12.32;3.03;;;13.10;99.90;;;;;;5051021;28;20123;-58
2021/05/27 11:17:27;;;;;;;11.00;2.40;;;13.00;99.90;;;;;;5050933;28;20124;-58
2021/05/27 11:25:10;;;;;;;12.88;3.20;;;13.20;99.90;;;;;;5050980;28;20530;-57
2021/05/27 11:27:38;;;;;;;10.55;2.95;;;13.40;99.90;;;;;;5050679;28;20053;-58
2021/05/27 11:30:17;;;;;;;14.32;3.30;;;13.50;99.90;;;;;;5050615;28;20041;-58
2021/05/27 11:32:45;;;;;;;9.32;2.25;;;13.30;99.90;;;;;;5050788;28;20037;-58
2021/05/27 11:35:12;;;;;;;12.38;2.92;;;13.20;99.90;;;;;;5050698;28;20048;-58
2021/05/27 11:37:40;;;;;;;10.25;3.25;;;13.30;99.90;;;;;;5050587;28;20068;-58
2021/05/27 11:40:09;;;;;;;13.32;3.42;;;13.10;99.90;;;;;;5061069;28;20058;-58
2021/05/27 11:42:35;;;;;;;13.57;3.67;;;13.10;99.90;;;;;;5113118;28;20126;-57
2021/05/27 11:45:05;;;;;;;10.23;2.60;;;13.10;99.90;;;;;;5113056;28;20036;-58
2021/05/27 11:47:31;;;;;;;14.05;3.08;;;13.00;99.90;;;;;;5113303;28;20092;-58
2021/05/27 11:50:15;;;;;;;13.23;3.42;;;13.40;99.90;;;;;;5113177;28;20032;-57
2021/05/27 11:52:41;;;;;;;6.70;1.58;;;13.50;99.90;;;;;;5113204;28;20048;-57
2021/05/27 11:55:12;;;;;;;5.53;1.95;;;13.50;99.90;;;;;;5113046;28;20039;-57
2021/05/27 11:57:45;;;;;;;10.35;2.50;;;13.60;99.90;;;;;;5113072;28;20118;-58
2021/05/27 12:00:14;;;;;;;9.75;1.90;;;13.60;99.90;;;;;;5113055;28;20067;-57
2021/05/27 12:02:58;;;;;;;11.07;2.10;;;13.60;99.90;;;;;;5112990;28;20043;-58
2021/05/27 12:05:31;;;;;;;11.35;2.42;;;13.60;99.90;;;;;;5112957;28;20385;-58
2021/05/27 12:08:05;;;;;;;9.35;2.70;;;13.50;99.90;;;;;;5113209;28;20131;-58
2021/05/27 12:10:36;;;;;;;9.40;2.65;;;13.40;99.90;;;;;;5113012;28;20043;-58
2021/05/27 12:13:03;;;;;;;15.15;2.67;;;13.40;99.90;;;;;;5112673;28;20042;-57
2021/05/27 12:15:29;;;;;;;9.23;2.53;;;13.30;99.90;;;;;;5112838;28;20039;-58
2021/05/27 12:17:58;;;;;;;14.38;3.45;;;13.30;99.90;;;;;;5112670;28;20444;-57
2021/05/27 12:20:33;;;;;;;22.52;3.38;;;13.30;99.90;;;;;;5111312;28;20075;-57
2021/05/27 12:23:05;;;;;;;15.88;3.97;;;13.30;99.90;;;;;;5112737;28;20040;-58
2021/05/27 12:25:35;;;;;;;15.75;3.00;;;13.30;99.90;;;;;;5112542;28;20040;-57
2021/05/27 12:28:15;;;;;;;11.82;2.97;;;13.40;99.90;;;;;;5111184;28;20474;-58
2021/05/27 12:30:45;;;;;;;18.00;3.97;;;13.50;99.90;;;;;;5112424;28;20040;-58
2021/05/27 12:33:32;;;;;;;16.70;3.33;;;13.40;99.90;;;;;;5112794;28;20050;-58
2021/05/27 12:36:05;;;;;;;8.75;2.65;;;13.50;99.90;;;;;;5112355;28;20043;-58
2021/05/27 12:38:30;;;;;;;12.90;3.00;;;13.50;99.90;;;;;;5112305;28;20070;-57
2021/05/27 12:41:04;;;;;;;10.50;2.88;;;13.50;99.90;;;;;;5112291;28;20062;-58
2021/05/27 12:43:40;;;;;;;15.38;3.08;;;13.30;99.90;;;;;;5112162;28;20045;-58
2021/05/27 12:46:08;;;;;;;16.05;3.47;;;13.40;99.90;;;;;;5112332;28;20050;-58
2021/05/27 12:48:50;;;;;;;28.02;4.25;;;13.50;99.90;;;;;;5112440;28;20480;-57
2021/05/27 12:51:17;;;;;;;10.48;3.25;;;13.70;99.90;;;;;;5112213;28;20080;-58
2021/05/27 12:53:46;;;;;;;14.00;3.15;;;13.80;99.90;;;;;;5112317;28;20039;-58
2021/05/27 12:56:12;;;;;;;18.00;3.22;;;14.00;99.90;;;;;;5112196;28;20035;-58
2021/05/27 12:58:40;;;;;;;14.30;2.70;;;14.00;99.90;;;;;;5112340;28;20097;-58
2021/05/27 13:01:07;;;;;;;12.20;2.75;;;14.00;99.90;;;;;;5112238;28;20040;-58
2021/05/27 13:03:50;;;;;;;16.27;3.58;;;14.20;99.90;;;;;;5110882;28;20039;-58
2021/05/27 13:06:21;;;;;;;13.13;3.97;;;14.20;99.90;;;;;;5111831;28;20477;-57